Time;durP1;ratioP1;P1;durP2;ratioP2;P2;SDS_P1;SDS_P2;PMS_P1;PMS_P2;Temp;Humidity;BMP_temperature;BMP_pressure;BME280_temperature;BME280_humidity;BME280_pressure;Samples;Min_cycle;Max_cycle;Signal;HPM_P1;HPM_P2
2022/10/04 00:02:44;;;;;;;3.90;3.10;;;10.60;99.90;;;;;;6023653;29;20480;-59
2022/10/04 00:05:52;;;;;;;5.13;3.30;;;10.60;99.90;;;;;;6023054;29;20475;-59
2022/10/04 00:09:00;;;;;;;3.23;2.93;;;10.50;99.90;;;;;;6017155;29;20552;-59
2022/10/04 00:12:05;;;;;;;3.57;3.13;;;10.40;99.90;;;;;;6023371;29;20476;-59
2022/10/04 00:15:20;;;;;;;4.23;2.60;;;10.40;99.90;;;;;;6018576;29;21013;-59
2022/10/04 00:18:30;;;;;;;7.40;2.83;;;10.30;99.90;;;;;;6024462;29;20488;-59
2022/10/04 00:22:18;;;;;;;3.27;2.87;;;10.40;99.90;;;;;;6025073;29;20972;-59
2022/10/04 00:25:33;;;;;;;5.03;2.90;;;10.40;99.90;;;;;;6025164;29;20517;-59
2022/10/04 00:28:45;;;;;;;3.17;2.97;;;10.40;99.90;;;;;;6021587;29;20551;-58
2022/10/04 00:32:26;;;;;;;6.40;2.90;;;10.40;99.90;;;;;;6021117;29;20460;-58
2022/10/04 00:35:50;;;;;;;5.37;3.77;;;10.30;99.90;;;;;;6024434;29;20475;-59
2022/10/04 00:39:31;;;;;;;3.37;3.07;;;10.20;99.90;;;;;;6036348;29;20484;-59
2022/10/04 00:42:56;;;;;;;3.30;2.80;;;10.00;99.90;;;;;;6029656;29;20483;-59
2022/10/04 00:46:04;;;;;;;3.23;2.93;;;10.00;99.90;;;;;;6026514;29;20945;-59
2022/10/04 00:49:09;;;;;;;4.43;4.03;;;10.00;99.90;;;;;;6035809;29;20483;-64
2022/10/04 00:52:16;;;;;;;3.40;3.10;;;10.00;99.90;;;;;;6035984;29;20484;-63
2022/10/04 00:55:25;;;;;;;7.37;3.80;;;9.90;99.90;;;;;;6035949;29;20483;-63
2022/10/04 00:58:35;;;;;;;4.27;3.07;;;10.00;99.90;;;;;;6035286;29;20483;-63
2022/10/04 01:01:39;;;;;;;3.13;2.93;;;10.00;99.90;;;;;;6035917;29;20452;-63
2022/10/04 01:04:48;;;;;;;4.50;3.33;;;10.00;99.90;;;;;;6036029;29;20752;-59
2022/10/04 01:07:55;;;;;;;3.63;2.70;;;9.90;99.90;;;;;;6036080;29;20527;-64
2022/10/04 01:11:03;;;;;;;5.10;3.00;;;9.90;99.90;;;;;;6035298;29;20983;-65
2022/10/04 01:14:12;;;;;;;4.03;2.93;;;9.90;99.90;;;;;;6035648;29;20467;-63
2022/10/04 01:17:15;;;;;;;4.33;3.17;;;9.90;99.90;;;;;;6037518;29;20479;-64
2022/10/04 01:20:32;;;;;;;3.87;2.90;;;9.90;99.90;;;;;;6040295;29;20479;-60
2022/10/04 01:23:42;;;;;;;2.60;2.50;;;10.00;99.90;;;;;;6020899;29;20477;-65
2022/10/04 01:26:45;;;;;;;5.33;3.00;;;10.00;99.90;;;;;;6017204;29;20484;-65
2022/10/04 01:29:48;;;;;;;4.20;2.60;;;9.90;99.90;;;;;;6017146;29;20484;-65
2022/10/04 01:32:53;;;;;;;7.43;3.27;;;9.80;99.90;;;;;;6017336;29;20499;-65
2022/10/04 01:35:57;;;;;;;3.23;2.70;;;9.60;99.90;;;;;;6016987;29;20913;-65
2022/10/04 01:39:01;;;;;;;5.27;2.90;;;9.60;99.90;;;;;;6016779;29;20850;-65
2022/10/04 01:42:10;;;;;;;3.67;3.10;;;9.70;99.90;;;;;;6016128;29;20604;-65
2022/10/04 01:45:19;;;;;;;5.20;2.70;;;9.70;99.90;;;;;;6016273;29;20476;-65
2022/10/04 01:48:26;;;;;;;2.90;2.70;;;9.70;99.90;;;;;;6016690;29;20525;-64
2022/10/04 01:51:33;;;;;;;3.60;2.80;;;9.70;99.90;;;;;;6016674;29;20987;-64
2022/10/04 01:54:42;;;;;;;4.40;3.57;;;9.70;99.90;;;;;;6016507;29;21058;-65
2022/10/04 01:57:49;;;;;;;5.70;4.97;;;9.70;99.90;;;;;;6016134;29;20508;-63
2022/10/04 02:01:02;;;;;;;9.93;4.87;;;9.70;99.90;;;;;;6016613;29;20961;-64
2022/10/04 02:04:11;;;;;;;3.90;3.60;;;9.70;99.90;;;;;;6016184;29;20491;-65
2022/10/04 02:07:16;;;;;;;3.50;3.17;;;9.70;99.90;;;;;;6016157;29;20820;-64
2022/10/04 02:10:22;;;;;;;3.40;2.70;;;9.60;99.90;;;;;;6016182;29;20816;-64
2022/10/04 02:13:29;;;;;;;3.80;3.30;;;9.60;99.90;;;;;;6016281;29;20525;-64
2022/10/04 02:16:37;;;;;;;4.53;3.63;;;9.50;99.90;;;;;;6015373;29;21000;-64
2022/10/04 02:19:43;;;;;;;3.73;2.50;;;9.50;99.90;;;;;;6016112;29;20444;-64
2022/10/04 02:22:50;;;;;;;3.27;2.97;;;9.50;99.90;;;;;;6016457;29;20437;-64
2022/10/04 02:25:55;;;;;;;3.53;3.10;;;9.50;99.90;;;;;;6016011;29;20472;-64
2022/10/04 02:28:58;;;;;;;3.93;3.30;;;9.50;99.90;;;;;;6015435;29;20491;-65
2022/10/04 02:35:27;;;;;;;3.40;3.10;;;9.50;99.90;;;;;;6015662;29;20961;-65
2022/10/04 02:38:35;;;;;;;2.90;2.70;;;9.50;99.90;;;;;;6015507;29;20554;-65
2022/10/04 02:41:44;;;;;;;3.40;2.30;;;9.50;99.90;;;;;;6015594;29;20491;-64
2022/10/04 02:44:55;;;;;;;3.63;2.70;;;9.40;99.90;;;;;;6015903;29;20491;-65
2022/10/04 02:48:04;;;;;;;2.60;2.40;;;9.40;99.90;;;;;;6015398;29;20569;-64
2022/10/04 02:51:18;;;;;;;3.10;2.57;;;9.40;99.90;;;;;;6015456;29;20848;-65
2022/10/04 02:54:28;;;;;;;4.50;2.80;;;9.40;99.90;;;;;;6006788;29;20491;-64
2022/10/04 02:57:34;;;;;;;4.03;2.80;;;9.30;99.90;;;;;;6015116;29;20580;-64
2022/10/04 03:00:47;;;;;;;4.90;4.03;;;9.30;99.90;;;;;;6014953;29;20587;-64
2022/10/04 03:03:50;;;;;;;6.10;3.13;;;9.20;99.90;;;;;;6015140;29;20559;-64
2022/10/04 03:06:55;;;;;;;4.33;3.90;;;9.10;99.90;;;;;;6015207;29;21036;-64
2022/10/04 03:09:58;;;;;;;5.00;4.57;;;9.10;99.90;;;;;;6014983;29;20473;-65
2022/10/04 03:13:04;;;;;;;4.30;3.93;;;9.10;99.90;;;;;;6014493;29;20803;-65
2022/10/04 03:16:07;;;;;;;5.20;3.80;;;9.10;99.90;;;;;;6014308;29;20521;-64
2022/10/04 03:19:13;;;;;;;4.90;3.50;;;9.10;99.90;;;;;;6014733;29;20584;-64
2022/10/04 03:22:17;;;;;;;3.83;3.53;;;9.10;99.90;;;;;;6014171;29;20888;-64
2022/10/04 03:25:23;;;;;;;6.07;3.90;;;9.10;99.90;;;;;;6014276;29;20481;-64
2022/10/04 03:28:29;;;;;;;3.57;2.80;;;9.10;99.90;;;;;;6014265;29;20496;-65
2022/10/04 03:31:34;;;;;;;3.63;3.33;;;9.10;99.90;;;;;;6014246;29;20484;-64
2022/10/04 03:34:40;;;;;;;3.73;3.43;;;9.10;99.90;;;;;;6014813;29;20465;-64
2022/10/04 03:37:44;;;;;;;3.43;3.13;;;9.00;99.90;;;;;;6014131;29;20537;-63
2022/10/04 03:40:52;;;;;;;4.13;3.27;;;9.00;99.90;;;;;;6012767;29;20467;-65
2022/10/04 03:43:56;;;;;;;4.80;3.30;;;9.00;99.90;;;;;;6014043;29;20552;-65
2022/10/04 03:47:09;;;;;;;4.77;3.17;;;9.00;99.90;;;;;;6014390;29;20504;-64
2022/10/04 03:50:18;;;;;;;4.90;3.70;;;9.00;99.90;;;;;;6013375;29;20545;-65
2022/10/04 03:53:29;;;;;;;3.73;3.20;;;9.00;99.90;;;;;;6013773;29;20981;-66
2022/10/04 03:56:35;;;;;;;4.50;3.30;;;8.90;99.90;;;;;;6009844;29;20495;-64
2022/10/04 03:59:42;;;;;;;3.10;2.90;;;8.90;99.90;;;;;;6013768;29;20476;-64
2022/10/04 04:02:49;;;;;;;3.80;3.50;;;8.90;99.90;;;;;;6013424;29;20476;-64
2022/10/04 04:05:58;;;;;;;3.23;3.03;;;8.90;99.90;;;;;;6013617;29;20481;-64
2022/10/04 04:09:05;;;;;;;4.83;3.97;;;8.90;99.90;;;;;;6013487;29;20495;-64
2022/10/04 04:12:15;;;;;;;4.40;3.17;;;8.90;99.90;;;;;;6013374;29;20987;-64
2022/10/04 04:15:19;;;;;;;4.87;3.83;;;8.90;99.90;;;;;;6013187;29;20493;-65
2022/10/04 04:18:24;;;;;;;3.60;3.30;;;8.90;99.90;;;;;;6013139;29;20480;-64
2022/10/04 04:21:28;;;;;;;5.80;3.20;;;8.90;99.90;;;;;;6013113;29;20475;-64
2022/10/04 04:24:32;;;;;;;6.37;3.47;;;8.90;99.90;;;;;;6013321;29;20999;-64
2022/10/04 04:27:38;;;;;;;3.57;3.27;;;8.80;99.90;;;;;;6012696;29;20484;-64
2022/10/04 04:30:50;;;;;;;4.67;3.07;;;8.80;99.90;;;;;;6013089;29;20480;-65
2022/10/04 04:33:58;;;;;;;5.13;3.40;;;8.80;99.90;;;;;;6013419;29;20545;-65
2022/10/04 04:37:03;;;;;;;4.03;3.20;;;8.70;99.90;;;;;;6013509;29;20492;-64
2022/10/04 04:40:19;;;;;;;5.40;4.90;;;8.80;99.90;;;;;;6012899;29;20488;-64
2022/10/04 04:43:26;;;;;;;4.80;4.27;;;8.80;99.90;;;;;;6012983;29;20541;-63
2022/10/04 04:46:31;;;;;;;7.03;5.50;;;8.80;99.90;;;;;;6012283;29;20496;-64
2022/10/04 04:49:39;;;;;;;7.27;6.67;;;8.80;99.90;;;;;;6012570;29;20817;-64
2022/10/04 04:52:45;;;;;;;4.90;3.97;;;8.80;99.90;;;;;;6019742;29;20509;-65
2022/10/04 04:55:52;;;;;;;4.73;4.20;;;8.80;99.90;;;;;;6020944;29;20448;-65
2022/10/04 04:59:15;;;;;;;3.70;3.40;;;8.90;99.90;;;;;;6020521;29;20491;-64
2022/10/04 05:02:30;;;;;;;4.57;4.00;;;8.80;99.90;;;;;;6012650;29;20492;-65
2022/10/04 05:05:34;;;;;;;3.97;3.67;;;8.90;99.90;;;;;;6020628;29;20568;-65
2022/10/04 05:08:37;;;;;;;5.23;3.60;;;8.80;99.90;;;;;;6020250;29;20847;-65
2022/10/04 05:11:43;;;;;;;4.77;3.57;;;8.80;99.90;;;;;;6020524;29;21059;-65
2022/10/04 05:14:51;;;;;;;4.23;3.07;;;8.90;99.90;;;;;;6020891;29;20480;-65
2022/10/04 05:17:55;;;;;;;5.10;3.70;;;8.80;99.90;;;;;;6032580;29;20483;-64
2022/10/04 05:21:05;;;;;;;6.57;3.70;;;8.90;99.90;;;;;;6020448;29;20484;-66
2022/10/04 05:24:11;;;;;;;8.10;7.40;;;9.00;99.90;;;;;;6020295;29;20504;-65
2022/10/04 05:27:17;;;;;;;7.83;7.00;;;9.10;99.90;;;;;;6020179;29;20483;-65
2022/10/04 05:30:37;;;;;;;8.83;5.70;;;9.20;99.90;;;;;;6019827;29;20484;-65
2022/10/04 05:33:48;;;;;;;5.43;4.90;;;9.20;99.90;;;;;;6019588;29;20476;-65
2022/10/04 05:37:26;;;;;;;5.80;5.30;;;9.40;99.90;;;;;;6019770;29;21141;-65
2022/10/04 05:40:44;;;;;;;3.73;3.43;;;9.40;99.90;;;;;;5997651;29;20568;-65
2022/10/04 05:43:49;;;;;;;8.10;4.27;;;9.40;99.90;;;;;;6019621;29;20467;-66
2022/10/04 05:46:55;;;;;;;3.83;3.50;;;9.50;99.90;;;;;;6023871;29;20475;-65
2022/10/04 05:50:00;;;;;;;6.37;3.67;;;9.60;99.90;;;;;;6026079;29;20468;-65
2022/10/04 05:53:19;;;;;;;8.57;4.27;;;9.80;99.90;;;;;;6019972;29;20568;-65
2022/10/04 05:56:48;;;;;;;6.33;3.63;;;9.90;99.90;;;;;;6028407;29;20750;-65
2022/10/04 06:00:09;;;;;;;4.97;4.57;;;10.00;99.90;;;;;;6042475;29;20986;-66
2022/10/04 06:03:37;;;;;;;4.77;3.93;;;10.10;99.90;;;;;;6039716;29;20991;-66
2022/10/04 06:06:49;;;;;;;5.77;4.27;;;10.20;99.90;;;;;;6030682;29;20475;-66
2022/10/04 06:10:17;;;;;;;5.40;4.30;;;10.10;99.90;;;;;;6038848;29;20514;-66
2022/10/04 06:13:39;;;;;;;10.20;5.17;;;10.10;99.90;;;;;;6038704;29;20483;-66
2022/10/04 06:16:56;;;;;;;12.00;5.53;;;10.30;99.90;;;;;;6037779;29;20479;-65
2022/10/04 06:20:22;;;;;;;6.07;5.50;;;10.30;99.90;;;;;;6038637;29;20546;-64
2022/10/04 06:23:30;;;;;;;11.40;6.43;;;10.30;99.90;;;;;;6038476;29;20482;-65
2022/10/04 06:26:39;;;;;;;7.87;5.43;;;10.30;99.90;;;;;;6038174;29;20478;-65
2022/10/04 06:29:49;;;;;;;7.93;5.73;;;10.50;99.90;;;;;;6037463;29;20951;-66
2022/10/04 06:33:24;;;;;;;10.70;6.47;;;10.60;99.90;;;;;;6033968;29;20480;-66
2022/10/04 06:36:49;;;;;;;6.47;5.00;;;10.70;99.90;;;;;;6025299;29;20865;-66
2022/10/04 06:40:25;;;;;;;10.40;6.30;;;10.90;99.90;;;;;;6024875;29;20481;-67
2022/10/04 06:43:43;;;;;;;9.03;5.50;;;11.10;99.90;;;;;;6015979;29;20796;-66
2022/10/04 06:46:50;;;;;;;7.30;6.00;;;11.20;99.90;;;;;;6026371;29;20464;-64
2022/10/04 06:49:59;;;;;;;5.67;5.17;;;11.20;99.90;;;;;;6022504;29;20502;-65
2022/10/04 06:53:16;;;;;;;10.20;5.60;;;11.40;99.90;;;;;;6026212;29;20627;-65
2022/10/04 06:56:54;;;;;;;8.73;5.30;;;11.50;99.90;;;;;;6020280;29;20472;-65
2022/10/04 07:00:07;;;;;;;11.27;6.90;;;11.60;99.90;;;;;;6019810;29;20486;-67
2022/10/04 07:03:15;;;;;;;10.13;5.80;;;11.80;99.90;;;;;;6028092;29;20860;-66
2022/10/04 07:06:25;;;;;;;8.67;5.60;;;11.80;99.90;;;;;;6021694;29;20972;-65
2022/10/04 07:09:29;;;;;;;6.13;5.53;;;12.00;99.90;;;;;;6020124;29;20819;-66
2022/10/04 07:12:38;;;;;;;11.27;6.40;;;12.10;99.90;;;;;;6020427;29;21016;-66
2022/10/04 07:15:48;;;;;;;10.80;6.10;;;12.40;99.90;;;;;;6023199;29;20488;-65
2022/10/04 07:19:03;;;;;;;7.90;7.10;;;12.70;99.90;;;;;;6017791;29;20592;-65
2022/10/04 07:22:20;;;;;;;10.93;7.50;;;13.10;99.90;;;;;;6014737;29;20958;-65
2022/10/04 07:25:27;;;;;;;7.83;5.87;;;13.40;99.90;;;;;;6024200;29;20484;-65
2022/10/04 07:32:08;;;;;;;9.67;6.77;;;14.00;99.90;;;;;;6029361;29;20462;-65
2022/10/04 07:35:20;;;;;;;8.77;5.57;;;15.70;98.20;;;;;;6037587;29;20475;-65
2022/10/04 07:38:28;;;;;;;7.77;6.87;;;17.60;96.40;;;;;;6030073;29;20496;-64
2022/10/04 07:41:35;;;;;;;6.63;5.53;;;20.70;91.10;;;;;;6013798;29;21011;-65
2022/10/04 07:44:43;;;;;;;15.53;5.90;;;22.80;76.60;;;;;;6021950;29;20231;-64
2022/10/04 07:47:46;;;;;;;8.47;6.30;;;23.30;66.70;;;;;;6030532;29;20235;-64
2022/10/04 07:51:02;;;;;;;8.33;7.53;;;23.40;63.30;;;;;;6015344;29;20235;-64
2022/10/04 07:54:15;;;;;;;9.03;6.30;;;24.10;60.60;;;;;;6015425;29;20243;-65
2022/10/04 07:57:27;;;;;;;9.13;6.97;;;25.50;57.00;;;;;;6013775;29;20683;-65
2022/10/04 08:00:40;;;;;;;9.50;7.00;;;27.90;51.60;;;;;;6014328;29;20227;-66
2022/10/04 08:03:59;;;;;;;8.10;7.30;;;30.40;44.40;;;;;;6014036;29;20249;-67
2022/10/04 08:07:10;;;;;;;7.50;6.60;;;31.10;39.70;;;;;;6013324;29;20239;-66
2022/10/04 08:10:24;;;;;;;8.63;5.87;;;31.20;37.40;;;;;;6013575;29;20238;-66
2022/10/04 08:13:38;;;;;;;10.65;6.40;;;32.10;36.10;;;;;;6009403;29;20246;-66
2022/10/04 08:16:58;;;;;;;10.45;5.82;;;33.80;33.10;;;;;;6013221;29;20234;-66
2022/10/04 08:20:18;;;;;;;7.53;5.05;;;35.40;30.50;;;;;;6013739;29;20234;-67
2022/10/04 08:23:47;;;;;;;5.95;5.30;;;36.90;28.40;;;;;;6013222;29;20245;-66
2022/10/04 08:27:01;;;;;;;5.90;5.30;;;38.20;26.30;;;;;;6013391;29;20241;-63
2022/10/04 08:30:10;;;;;;;7.25;4.70;;;39.50;25.00;;;;;;6013619;29;20246;-63
2022/10/04 08:33:27;;;;;;;6.78;4.90;;;40.30;24.00;;;;;;6013377;29;20245;-62
2022/10/04 08:36:54;;;;;;;7.30;5.13;;;41.30;22.70;;;;;;6013211;29;20235;-64
2022/10/04 08:40:17;;;;;;;8.25;4.60;;;42.50;21.20;;;;;;6013250;29;20238;-64
2022/10/04 08:44:00;;;;;;;5.97;4.05;;;42.40;20.50;;;;;;6013967;29;20247;-63
2022/10/04 08:47:49;;;;;;;6.57;5.50;;;42.60;20.20;;;;;;5944038;29;20249;-62
2022/10/04 08:51:40;;;;;;;5.25;4.43;;;42.00;20.30;;;;;;5952547;29;20576;-63
2022/10/04 08:58:16;;;;;;;7.25;3.63;;;41.60;20.20;;;;;;6325203;27;20547;-66
2022/10/04 09:01:45;;;;;;;4.78;4.20;;;43.60;18.80;;;;;;6298574;28;20258;-66
2022/10/04 09:05:17;;;;;;;4.90;4.40;;;44.50;18.50;;;;;;6296016;28;20262;-64
2022/10/04 09:09:00;;;;;;;6.68;3.92;;;45.20;18.00;;;;;;6296420;28;20235;-63
2022/10/04 09:12:43;;;;;;;4.05;3.28;;;45.80;17.60;;;;;;6295872;28;20239;-62
2022/10/04 09:15:55;;;;;;;6.20;3.53;;;46.00;16.80;;;;;;6279297;28;20236;-60
2022/10/04 09:19:21;;;;;;;5.15;3.08;;;46.70;16.50;;;;;;6295893;28;20388;-62
2022/10/04 09:22:46;;;;;;;8.23;3.90;;;46.40;16.00;;;;;;6294980;28;20679;-62
2022/10/04 09:26:05;;;;;;;8.50;7.57;;;44.00;17.00;;;;;;6295503;28;20236;-62
2022/10/04 09:29:36;;;;;;;8.68;5.78;;;43.90;17.30;;;;;;6295413;28;20317;-62
2022/10/04 09:33:24;;;;;;;6.32;3.85;;;44.10;17.60;;;;;;6295255;28;20237;-62
2022/10/04 09:36:51;;;;;;;4.05;2.90;;;44.70;17.30;;;;;;6295187;28;20236;-62
2022/10/04 09:40:30;;;;;;;5.10;3.53;;;46.20;16.40;;;;;;6294604;28;20334;-60
2022/10/04 09:44:34;;;;;;;7.47;3.40;;;46.00;16.50;;;;;;6271392;28;20711;-63
2022/10/04 09:47:55;;;;;;;4.15;2.95;;;47.10;16.00;;;;;;6278856;28;20222;-61
2022/10/04 09:51:41;;;;;;;6.30;2.10;;;48.20;15.00;;;;;;6292374;28;20230;-60
2022/10/04 09:55:06;;;;;;;2.90;1.90;;;48.80;14.50;;;;;;6280314;28;20222;-61
2022/10/04 09:58:42;;;;;;;2.60;2.38;;;49.40;14.20;;;;;;6293390;28;21005;-60
2022/10/04 10:02:04;;;;;;;2.20;2.00;;;48.80;13.60;;;;;;6287194;28;20231;-60
2022/10/04 10:05:29;;;;;;;1.83;1.73;;;49.40;13.90;;;;;;6293423;28;20226;-60
2022/10/04 10:08:40;;;;;;;2.00;1.80;;;49.20;13.30;;;;;;6258529;28;20657;-60
2022/10/04 10:15:24;;;;;;;2.20;1.70;;;48.00;13.40;;;;;;6252965;28;20238;-60
2022/10/04 10:18:39;;;;;;;2.42;1.92;;;48.10;14.00;;;;;;6253031;28;20320;-60
2022/10/04 10:22:03;;;;;;;2.10;1.90;;;48.20;13.20;;;;;;6244404;28;20286;-60
2022/10/04 10:25:27;;;;;;;3.50;1.90;;;45.10;14.40;;;;;;6252701;28;20678;-60
2022/10/04 10:28:46;;;;;;;4.43;1.65;;;44.60;15.40;;;;;;6252925;28;20250;-62
2022/10/04 10:32:19;;;;;;;2.28;1.52;;;46.40;14.30;;;;;;6276254;28;20218;-60
2022/10/04 10:35:34;;;;;;;3.42;2.00;;;46.50;14.20;;;;;;6275341;28;20244;-61
2022/10/04 10:39:26;;;;;;;2.08;1.70;;;47.90;13.90;;;;;;6273511;28;20253;-61
2022/10/04 10:42:50;;;;;;;4.20;1.30;;;49.40;13.00;;;;;;6200831;28;20741;-60
2022/10/04 10:46:14;;;;;;;1.88;1.25;;;50.40;12.30;;;;;;6205283;28;20231;-60
2022/10/04 10:49:34;;;;;;;3.05;1.65;;;50.50;12.10;;;;;;6276714;28;20312;-61
2022/10/04 10:53:22;;;;;;;2.65;1.67;;;50.50;12.10;;;;;;6276556;28;20240;-60
2022/10/04 10:56:36;;;;;;;2.15;1.55;;;49.10;12.60;;;;;;6270217;28;20226;-60
2022/10/04 11:00:17;;;;;;;2.25;1.58;;;49.90;12.00;;;;;;6276628;28;20659;-60
2022/10/04 11:03:53;;;;;;;1.70;1.60;;;49.60;12.10;;;;;;6276509;28;20222;-60
2022/10/04 11:07:32;;;;;;;2.22;1.67;;;50.40;11.80;;;;;;6270412;28;20255;-60
2022/10/04 11:11:04;;;;;;;3.00;1.35;;;50.30;11.70;;;;;;6290994;28;20237;-60
2022/10/04 11:14:37;;;;;;;2.47;1.55;;;49.60;11.70;;;;;;6276895;28;20278;-61
2022/10/04 11:18:16;;;;;;;2.20;1.63;;;49.60;11.70;;;;;;6276809;28;20292;-60
2022/10/04 11:21:50;;;;;;;2.20;1.40;;;50.10;11.60;;;;;;6275397;28;20238;-60
2022/10/04 11:25:24;;;;;;;1.67;1.40;;;50.80;10.80;;;;;;6266945;28;20243;-62
2022/10/04 11:28:37;;;;;;;1.90;1.63;;;51.70;10.60;;;;;;6276519;28;20227;-62
2022/10/04 11:32:17;;;;;;;1.60;1.50;;;52.10;10.20;;;;;;6275920;28;20591;-62
2022/10/04 11:35:59;;;;;;;2.15;1.30;;;52.40;10.20;;;;;;6276410;28;20261;-63
2022/10/04 11:39:23;;;;;;;2.15;1.60;;;52.30;9.70;;;;;;6279651;28;20234;-63
2022/10/04 11:42:44;;;;;;;2.63;1.83;;;51.90;10.30;;;;;;6276315;28;20234;-61
2022/10/04 11:46:08;;;;;;;1.75;1.45;;;51.80;10.20;;;;;;6278533;28;20239;-61
2022/10/04 11:49:36;;;;;;;2.40;1.40;;;52.60;10.30;;;;;;6255487;28;20673;-62
2022/10/04 11:53:13;;;;;;;1.88;1.67;;;51.30;10.70;;;;;;6277659;28;20235;-62
2022/10/04 11:56:23;;;;;;;1.65;1.30;;;52.00;10.30;;;;;;6256217;28;20577;-63
2022/10/04 11:59:42;;;;;;;2.42;1.35;;;52.00;9.80;;;;;;6250191;28;20273;-62
2022/10/04 12:03:08;;;;;;;4.85;2.22;;;51.30;10.00;;;;;;6250890;28;20231;-62
2022/10/04 12:06:23;;;;;;;2.08;1.98;;;50.30;10.50;;;;;;6250393;28;20231;-61
2022/10/04 12:09:35;;;;;;;3.88;1.98;;;49.20;11.20;;;;;;6250360;28;20254;-62
2022/10/04 12:12:59;;;;;;;1.35;1.25;;;50.20;10.90;;;;;;6250745;28;20235;-63
2022/10/04 12:16:37;;;;;;;1.55;1.45;;;51.70;10.30;;;;;;6275005;28;20227;-63
2022/10/04 12:20:02;;;;;;;4.30;2.00;;;52.20;10.40;;;;;;6294790;28;20304;-63
2022/10/04 12:23:41;;;;;;;1.73;1.35;;;51.10;10.60;;;;;;6274945;28;20237;-62
2022/10/04 12:27:28;;;;;;;2.75;1.92;;;50.00;10.50;;;;;;6274605;28;20245;-61
2022/10/04 12:30:50;;;;;;;1.77;1.33;;;50.60;10.60;;;;;;6263181;28;20230;-61
2022/10/04 12:34:02;;;;;;;4.95;1.52;;;51.20;10.60;;;;;;6274560;28;20667;-61
2022/10/04 12:37:20;;;;;;;1.67;1.58;;;51.50;9.90;;;;;;6274299;28;20235;-61
2022/10/04 12:40:32;;;;;;;1.80;1.20;;;50.60;10.60;;;;;;6265887;28;20228;-64
2022/10/04 12:43:43;;;;;;;1.77;1.63;;;51.50;10.30;;;;;;6250105;28;20254;-63
2022/10/04 12:46:56;;;;;;;1.80;1.30;;;51.90;9.80;;;;;;6249797;28;20227;-62
2022/10/04 12:50:12;;;;;;;1.83;1.40;;;51.90;9.90;;;;;;6249555;28;20677;-62
2022/10/04 12:53:30;;;;;;;1.60;1.50;;;52.30;9.90;;;;;;6249567;28;20580;-64
2022/10/04 12:56:45;;;;;;;1.88;1.33;;;52.90;9.70;;;;;;6249466;28;20234;-65
2022/10/04 12:59:58;;;;;;;3.55;1.90;;;50.70;10.00;;;;;;6249366;28;20266;-64
2022/10/04 13:03:14;;;;;;;2.47;1.65;;;49.10;11.20;;;;;;6249517;28;20286;-64
2022/10/04 13:06:31;;;;;;;1.85;1.65;;;48.80;11.00;;;;;;6249431;28;20231;-64
2022/10/04 13:09:48;;;;;;;1.58;1.40;;;49.50;10.80;;;;;;6251381;28;20247;-66
2022/10/04 13:13:47;;;;;;;3.35;2.35;;;50.20;10.40;;;;;;6250795;28;20305;-64
2022/10/04 13:16:57;;;;;;;2.58;1.70;;;48.80;10.90;;;;;;6273968;28;20232;-63
2022/10/04 13:20:45;;;;;;;2.05;1.38;;;46.50;12.00;;;;;;6274279;28;20287;-64
2022/10/04 13:24:00;;;;;;;3.33;1.92;;;44.30;12.50;;;;;;6274727;28;20235;-64
2022/10/04 13:27:07;;;;;;;2.45;1.60;;;40.50;14.60;;;;;;6273904;28;20242;-64
2022/10/04 13:30:22;;;;;;;2.03;1.65;;;39.50;15.70;;;;;;6274197;28;20251;-65
2022/10/04 13:33:33;;;;;;;2.10;1.75;;;37.90;16.70;;;;;;6265143;28;20231;-63
2022/10/04 13:36:49;;;;;;;4.53;3.83;;;35.30;18.30;;;;;;6274466;28;20235;-64
2022/10/04 13:40:20;;;;;;;4.80;3.95;;;32.80;20.20;;;;;;6272842;28;20365;-64
2022/10/04 13:44:01;;;;;;;3.03;2.22;;;30.90;22.30;;;;;;6274078;28;20223;-64
2022/10/04 13:47:22;;;;;;;2.87;1.90;;;29.40;23.40;;;;;;6263425;28;20228;-63
2022/10/04 13:50:42;;;;;;;3.80;1.93;;;28.30;24.90;;;;;;6251949;28;20228;-63
2022/10/04 13:57:30;;;;;;;1.80;1.70;;;26.30;27.30;;;;;;6252731;28;20239;-58
2022/10/04 14:00:49;;;;;;;2.10;1.90;;;25.30;28.60;;;;;;6252879;28;20660;-59
2022/10/04 14:04:06;;;;;;;3.33;2.00;;;24.00;30.30;;;;;;6253238;28;20312;-58
2022/10/04 14:07:30;;;;;;;3.20;2.30;;;23.60;31.30;;;;;;6252438;28;20232;-59
2022/10/04 14:10:52;;;;;;;3.60;2.10;;;23.40;31.90;;;;;;6251920;28;20283;-58
2022/10/04 14:14:30;;;;;;;6.10;1.80;;;23.30;31.90;;;;;;6259817;28;20223;-58
2022/10/04 14:18:10;;;;;;;2.83;1.70;;;23.20;32.00;;;;;;6272838;28;20235;-59
2022/10/04 14:21:42;;;;;;;3.00;1.97;;;22.90;32.40;;;;;;6277025;28;20244;-58
2022/10/04 14:25:19;;;;;;;2.40;2.10;;;22.80;32.80;;;;;;6277177;28;20259;-58
2022/10/04 14:28:56;;;;;;;4.23;1.97;;;22.70;33.30;;;;;;6276759;28;20243;-58
2022/10/04 14:32:27;;;;;;;2.77;1.83;;;22.70;34.10;;;;;;6251781;28;20240;-58
2022/10/04 14:35:33;;;;;;;2.20;2.00;;;22.60;34.30;;;;;;6277002;28;20224;-58
2022/10/04 14:38:56;;;;;;;2.20;1.87;;;21.80;35.70;;;;;;6276557;28;20243;-58
2022/10/04 14:42:30;;;;;;;4.00;1.90;;;21.80;35.70;;;;;;6260643;28;20669;-58
2022/10/04 14:45:42;;;;;;;1.60;1.50;;;21.70;36.00;;;;;;6251617;28;20574;-58
2022/10/04 14:49:06;;;;;;;2.40;1.70;;;21.60;36.60;;;;;;6268954;28;20235;-58
2022/10/04 14:52:24;;;;;;;1.70;1.60;;;21.50;36.90;;;;;;6276213;28;20232;-58
2022/10/04 14:55:52;;;;;;;21.17;3.57;;;21.30;36.80;;;;;;6275775;28;20228;-58
2022/10/04 14:59:07;;;;;;;6.30;3.80;;;21.20;36.90;;;;;;6298794;28;20539;-58
2022/10/04 15:02:36;;;;;;;2.97;2.73;;;21.20;37.30;;;;;;6276618;28;20224;-59
2022/10/04 15:06:09;;;;;;;2.13;1.90;;;21.20;37.60;;;;;;6276494;28;20228;-58
2022/10/04 15:09:51;;;;;;;2.83;2.33;;;21.10;37.80;;;;;;6269502;28;20313;-58
2022/10/04 15:13:02;;;;;;;4.17;1.73;;;21.00;38.60;;;;;;6275731;28;20231;-59
2022/10/04 15:16:21;;;;;;;5.30;2.30;;;21.00;38.60;;;;;;6250946;28;20243;-58
2022/10/04 15:19:28;;;;;;;2.40;1.70;;;20.70;39.70;;;;;;6250573;28;20259;-58
2022/10/04 15:22:41;;;;;;;2.10;1.60;;;20.60;39.80;;;;;;6250528;28;20243;-58
2022/10/04 15:25:46;;;;;;;3.80;2.17;;;20.50;40.30;;;;;;6251410;28;20232;-58
2022/10/04 15:29:05;;;;;;;3.33;2.07;;;20.20;40.00;;;;;;6276918;28;20575;-58
2022/10/04 15:32:23;;;;;;;3.13;1.70;;;20.20;40.60;;;;;;6286980;28;20227;-59
2022/10/04 15:35:34;;;;;;;1.97;1.53;;;20.10;41.00;;;;;;6303235;28;20674;-59
2022/10/04 15:38:49;;;;;;;4.30;2.20;;;20.10;41.00;;;;;;6303714;28;20234;-58
2022/10/04 15:42:02;;;;;;;3.20;1.90;;;20.10;41.20;;;;;;6273620;28;20251;-58
2022/10/04 15:45:26;;;;;;;2.33;1.90;;;20.10;41.40;;;;;;6276826;28;20235;-58
2022/10/04 15:48:46;;;;;;;2.60;1.73;;;20.00;41.80;;;;;;6274890;28;20558;-58
2022/10/04 15:52:08;;;;;;;4.30;2.07;;;20.00;41.50;;;;;;6275314;28;20285;-58
2022/10/04 15:55:24;;;;;;;2.27;2.10;;;19.90;41.60;;;;;;6274686;28;20235;-58
2022/10/04 15:58:48;;;;;;;2.00;1.90;;;20.00;42.10;;;;;;6274805;28;20710;-58
2022/10/04 16:02:24;;;;;;;3.60;1.77;;;19.90;41.90;;;;;;6274842;28;20228;-58
2022/10/04 16:05:35;;;;;;;1.90;1.80;;;19.70;42.30;;;;;;6266384;28;20569;-57
2022/10/04 16:09:04;;;;;;;2.47;1.73;;;19.60;42.40;;;;;;6274746;28;20671;-58
2022/10/04 16:12:20;;;;;;;3.40;2.17;;;19.70;42.50;;;;;;6275200;28;20232;-58
2022/10/04 16:15:32;;;;;;;3.20;2.00;;;19.60;43.00;;;;;;6293903;28;20667;-57
2022/10/04 16:18:44;;;;;;;3.47;2.13;;;19.40;44.10;;;;;;6298923;28;20246;-57
2022/10/04 16:21:52;;;;;;;3.00;2.33;;;19.40;44.50;;;;;;6299411;28;20397;-57
2022/10/04 16:24:59;;;;;;;4.30;2.43;;;19.30;46.20;;;;;;6299063;28;20251;-57
2022/10/04 16:28:12;;;;;;;2.60;2.40;;;19.20;46.80;;;;;;6298310;28;20284;-57
2022/10/04 16:31:39;;;;;;;4.07;2.70;;;19.20;47.70;;;;;;6297966;28;20245;-57
2022/10/04 16:34:52;;;;;;;10.93;3.17;;;19.10;48.20;;;;;;6297431;28;20460;-57
2022/10/04 16:38:00;;;;;;;5.00;3.57;;;19.10;48.50;;;;;;6298373;28;20231;-57
2022/10/04 16:41:13;;;;;;;5.23;4.67;;;19.00;48.60;;;;;;6284123;28;20238;-57
2022/10/04 16:44:38;;;;;;;6.30;4.30;;;19.00;48.80;;;;;;6270094;28;20227;-57
2022/10/04 16:47:55;;;;;;;5.27;3.73;;;18.90;49.60;;;;;;6273945;28;20668;-58
2022/10/04 16:51:26;;;;;;;5.17;3.60;;;18.90;50.70;;;;;;6274001;28;20642;-58
2022/10/04 16:54:52;;;;;;;10.77;3.90;;;18.70;51.40;;;;;;6274186;28;20239;-58
2022/10/04 16:58:37;;;;;;;4.80;4.30;;;18.60;52.20;;;;;;6223327;28;20377;-59
2022/10/04 17:02:06;;;;;;;7.63;3.73;;;18.50;53.40;;;;;;6249336;28;20233;-58
2022/10/04 17:05:24;;;;;;;5.40;3.60;;;18.40;54.80;;;;;;6249277;28;20706;-58
2022/10/04 17:08:48;;;;;;;12.17;4.20;;;18.20;56.20;;;;;;6249325;28;20233;-57
2022/10/04 17:12:08;;;;;;;7.33;5.10;;;18.10;57.30;;;;;;6248923;28;20707;-57
2022/10/04 17:15:47;;;;;;;5.67;5.13;;;18.00;58.50;;;;;;6266311;28;20235;-57
2022/10/04 17:19:09;;;;;;;8.63;5.73;;;17.90;59.90;;;;;;6273386;28;20470;-59
2022/10/04 17:22:24;;;;;;;8.13;4.67;;;17.80;61.00;;;;;;6279193;28;20232;-60
2022/10/04 17:25:36;;;;;;;8.70;4.80;;;17.60;62.90;;;;;;6278937;28;20466;-58
2022/10/04 17:28:52;;;;;;;5.60;4.00;;;17.50;64.60;;;;;;6278342;28;20482;-58
2022/10/04 17:31:58;;;;;;;6.17;4.97;;;17.40;65.90;;;;;;6278726;28;20446;-59